Time;durP1;ratioP1;P1;durP2;ratioP2;P2;SDS_P1;SDS_P2;PMS_P1;PMS_P2;Temp;Humidity;BMP_temperature;BMP_pressure;BME280_temperature;BME280_humidity;BME280_pressure;Samples;Min_cycle;Max_cycle;Signal;HPM_P1;HPM_P2
2022/03/05 00:00:06;;;;;;;18.23;9.75;;;;;;;2.02;58.41;95570.41;4319304;32;20185;-59
2022/03/05 00:02:32;;;;;;;12.27;9.57;;;;;;;2.01;58.74;95571.44;4309616;32;20194;-59
2022/03/05 00:04:58;;;;;;;13.57;10.05;;;;;;;1.90;58.83;95569.62;4361956;32;20189;-59
2022/03/05 00:07:24;;;;;;;13.23;9.90;;;;;;;1.97;58.58;95567.69;4358484;32;20264;-59
2022/03/05 00:09:51;;;;;;;10.68;9.25;;;;;;;1.96;59.04;95568.72;4373231;32;20192;-59
2022/03/05 00:12:16;;;;;;;12.55;9.70;;;;;;;1.97;58.82;95557.22;4360455;32;20200;-60
2022/03/05 00:14:45;;;;;;;13.27;9.68;;;;;;;1.82;59.64;95562.97;4355412;32;20181;-59
2022/03/05 00:17:11;;;;;;;11.95;9.52;;;;;;;1.94;59.06;95566.31;4339074;32;20193;-60
2022/03/05 00:19:38;;;;;;;14.40;10.70;;;;;;;2.02;58.79;95563.34;4337194;32;20173;-60
2022/03/05 00:22:04;;;;;;;12.05;9.35;;;;;;;2.11;58.70;95562.97;4343023;32;20250;-60
2022/03/05 00:24:31;;;;;;;12.15;9.90;;;;;;;2.16;58.54;95568.28;4336489;32;20189;-60
2022/03/05 00:26:58;;;;;;;15.18;10.38;;;;;;;2.05;58.90;95567.31;4328780;32;20293;-59
2022/03/05 00:29:25;;;;;;;15.25;10.15;;;;;;;2.00;59.21;95568.03;4335298;32;20276;-59
2022/03/05 00:31:52;;;;;;;16.00;11.18;;;;;;;2.11;58.88;95569.00;4362824;32;20275;-60
2022/03/05 00:34:21;;;;;;;13.52;9.93;;;;;;;1.88;59.46;95569.88;4345031;32;20243;-60
2022/03/05 00:36:48;;;;;;;14.10;10.63;;;;;;;1.62;60.29;95573.03;4352433;32;20199;-60
2022/03/05 00:39:14;;;;;;;14.45;11.30;;;;;;;1.56;60.90;95571.31;4345432;32;20196;-60
2022/03/05 00:41:41;;;;;;;14.82;10.07;;;;;;;1.49;60.73;95565.41;4326332;32;20196;-60
2022/03/05 00:44:06;;;;;;;16.87;10.35;;;;;;;1.38;61.25;95565.22;4325173;32;20211;-60
2022/03/05 00:46:32;;;;;;;14.00;10.40;;;;;;;1.54;61.19;95570.75;4361238;32;20197;-60
2022/03/05 00:49:00;;;;;;;14.90;10.33;;;;;;;1.64;60.78;95563.94;4338396;32;20299;-60
2022/03/05 00:51:29;;;;;;;13.48;10.63;;;;;;;1.62;60.77;95560.75;4342946;32;20272;-60
2022/03/05 00:53:56;;;;;;;14.50;10.48;;;;;;;1.65;60.57;95562.91;4315716;32;20292;-60
2022/03/05 00:56:22;;;;;;;17.85;11.05;;;;;;;1.44;61.59;95562.72;4350593;32;20208;-60
2022/03/05 00:58:50;;;;;;;13.83;10.50;;;;;;;1.46;61.56;95561.44;4362979;32;20184;-60
2022/03/05 01:01:17;;;;;;;14.00;10.52;;;;;;;1.30;62.01;95562.16;4344003;32;20188;-60
2022/03/05 01:03:45;;;;;;;16.02;11.48;;;;;;;1.38;62.01;95553.97;4357406;32;20272;-60
2022/03/05 01:06:13;;;;;;;14.07;10.20;;;;;;;1.41;62.15;95553.50;4355271;32;20184;-60
2022/03/05 01:08:39;;;;;;;15.18;10.50;;;;;;;1.51;61.46;95556.31;4341717;32;20180;-60
2022/03/05 01:11:04;;;;;;;13.87;10.87;;;;;;;1.54;61.92;95557.69;4367300;32;20202;-60
2022/03/05 01:13:31;;;;;;;11.63;10.13;;;;;;;1.58;61.82;95554.38;4370888;32;20180;-59
2022/03/05 01:15:59;;;;;;;15.30;11.00;;;;;;;1.32;62.57;95558.28;4352264;32;20185;-59
2022/03/05 01:18:26;;;;;;;17.27;11.25;;;;;;;1.11;63.37;95558.06;4351704;32;20266;-60
2022/03/05 01:20:51;;;;;;;15.07;10.88;;;;;;;1.30;62.90;95556.91;4358905;32;20235;-59
2022/03/05 01:23:17;;;;;;;14.17;10.50;;;;;;;1.22;63.43;95555.47;4336189;32;20216;-60
2022/03/05 01:25:43;;;;;;;14.25;10.40;;;;;;;0.78;64.43;95554.22;4332357;32;20238;-60
2022/03/05 01:28:09;;;;;;;15.77;11.67;;;;;;;0.98;64.36;95564.34;4341168;32;20189;-60
2022/03/05 01:30:37;;;;;;;17.08;11.07;;;;;;;1.23;63.76;95551.84;4364982;32;20310;-60
2022/03/05 01:33:07;;;;;;;15.52;10.98;;;;;;;1.17;63.77;95555.34;4335354;32;20182;-59
2022/03/05 01:35:34;;;;;;;15.80;11.38;;;;;;;0.82;64.78;95554.56;4361240;32;20213;-60
2022/03/05 01:38:01;;;;;;;15.50;10.77;;;;;;;1.17;63.93;95555.34;4363476;32;20202;-59
2022/03/05 01:40:27;;;;;;;18.92;12.10;;;;;;;1.03;64.13;95560.03;4362055;32;20238;-59
2022/03/05 01:42:53;;;;;;;17.20;10.90;;;;;;;0.96;64.45;95561.16;4339739;32;20351;-59
2022/03/05 01:45:23;;;;;;;14.63;10.95;;;;;;;1.12;64.05;95559.66;4377235;32;20253;-59
2022/03/05 01:47:50;;;;;;;13.82;10.52;;;;;;;1.02;64.33;95561.03;4348741;32;20263;-59
2022/03/05 01:50:17;;;;;;;14.13;10.40;;;;;;;1.22;63.96;95550.25;4339682;32;20225;-59
2022/03/05 01:52:43;;;;;;;13.70;10.55;;;;;;;0.98;64.45;95556.50;4350332;32;20185;-59
2022/03/05 01:55:12;;;;;;;13.52;9.73;;;;;;;1.04;64.49;95552.97;4353076;32;20206;-59
2022/03/05 01:57:38;;;;;;;15.68;11.00;;;;;;;0.95;65.09;95551.72;4354322;32;20215;-59
2022/03/05 02:00:09;;;;;;;12.10;9.97;;;;;;;0.99;65.18;95556.28;4343388;32;20205;-59
2022/03/05 02:02:37;;;;;;;15.80;11.27;;;;;;;0.74;65.78;95550.47;4361252;32;20185;-60
2022/03/05 02:05:05;;;;;;;18.12;11.75;;;;;;;1.12;64.86;95554.44;4351372;32;20201;-59
2022/03/05 02:07:32;;;;;;;15.35;11.07;;;;;;;0.86;65.57;95559.09;4370080;32;20188;-59
2022/03/05 02:09:59;;;;;;;14.68;10.25;;;;;;;1.23;64.41;95544.00;4370711;32;20180;-59
2022/03/05 02:12:44;;;;;;;17.35;11.85;;;;;;;1.16;64.51;95545.13;4351793;32;20280;-59
2022/03/05 02:15:14;;;;;;;15.75;10.70;;;;;;;1.16;64.51;95540.69;4348563;32;20185;-59
2022/03/05 02:17:41;;;;;;;17.62;11.40;;;;;;;1.15;64.59;95538.31;4348197;32;20184;-59
2022/03/05 02:20:07;;;;;;;15.20;10.60;;;;;;;0.96;65.16;95540.25;4353077;32;20234;-59
2022/03/05 02:22:37;;;;;;;14.77;10.60;;;;;;;0.91;65.24;95537.53;4375297;32;20188;-59
2022/03/05 02:25:04;;;;;;;14.13;11.02;;;;;;;1.15;64.67;95539.12;4362661;32;20188;-59
2022/03/05 02:27:30;;;;;;;17.40;10.88;;;;;;;1.25;64.10;95544.53;4376039;32;20197;-59
2022/03/05 02:29:58;;;;;;;20.40;11.12;;;;;;;1.01;64.70;95543.00;4355709;32;20189;-60
2022/03/05 02:32:26;;;;;;;13.15;10.50;;;;;;;0.80;65.68;95549.56;4361645;32;20219;-59
2022/03/05 02:34:54;;;;;;;13.13;10.18;;;;;;;0.84;65.69;95547.28;4319062;32;20189;-59
2022/03/05 02:37:21;;;;;;;13.27;10.55;;;;;;;1.10;64.87;95535.59;4360804;32;20256;-59
2022/03/05 02:39:49;;;;;;;15.07;11.02;;;;;;;1.33;63.97;95531.12;4359130;32;20181;-59
2022/03/05 02:42:17;;;;;;;15.88;11.52;;;;;;;1.15;64.06;95522.66;4338962;32;20229;-60
2022/03/05 02:44:48;;;;;;;16.98;11.50;;;;;;;1.30;63.67;95521.13;4337754;32;20204;-59
2022/03/05 02:47:15;;;;;;;14.75;10.40;;;;;;;1.21;63.96;95525.13;4347650;32;20304;-59
2022/03/05 02:49:43;;;;;;;14.70;11.05;;;;;;;1.45;63.17;95518.06;4366394;32;20204;-59
2022/03/05 02:52:10;;;;;;;14.75;10.70;;;;;;;1.53;62.89;95509.03;4365568;32;20256;-59
2022/03/05 02:54:35;;;;;;;15.63;10.88;;;;;;;1.37;63.13;95515.78;4356726;32;20177;-60
2022/03/05 02:57:00;;;;;;;16.60;11.03;;;;;;;1.53;63.00;95517.69;4353697;32;20185;-59
2022/03/05 02:59:26;;;;;;;14.73;10.70;;;;;;;1.54;62.62;95515.84;4325924;32;20299;-60
2022/03/05 03:01:52;;;;;;;16.75;11.15;;;;;;;1.27;63.25;95512.97;4354154;32;20247;-60
2022/03/05 03:04:19;;;;;;;17.80;11.43;;;;;;;1.38;62.98;95518.19;4348918;32;20247;-59
2022/03/05 03:06:44;;;;;;;12.23;9.98;;;;;;;1.25;63.47;95505.34;4330244;32;20275;-58
2022/03/05 03:09:14;;;;;;;14.23;11.53;;;;;;;1.34;63.39;95511.81;4376639;32;20184;-60
2022/03/05 03:11:40;;;;;;;16.67;11.38;;;;;;;1.20;63.57;95515.72;4353648;32;20189;-59
2022/03/05 03:14:09;;;;;;;17.23;11.30;;;;;;;1.37;63.28;95506.13;4357638;32;20262;-59
2022/03/05 03:16:36;;;;;;;15.98;11.57;;;;;;;1.38;63.29;95512.16;4368435;32;20234;-63
2022/03/05 03:19:02;;;;;;;14.57;10.43;;;;;;;1.23;63.61;95515.25;4370894;32;20207;-59
2022/03/05 03:21:29;;;;;;;14.63;11.20;;;;;;;1.32;63.21;95506.03;4356938;32;20259;-59
2022/03/05 03:23:55;;;;;;;17.20;10.95;;;;;;;1.06;64.00;95505.72;4359314;32;20275;-60
2022/03/05 03:26:21;;;;;;;14.45;10.70;;;;;;;1.09;64.35;95508.66;4331250;32;20189;-59
2022/03/05 03:28:46;;;;;;;13.90;10.97;;;;;;;1.26;63.71;95511.37;4333684;32;20255;-60
2022/03/05 03:31:13;;;;;;;14.97;10.40;;;;;;;1.40;63.13;95509.31;4358873;32;20180;-60
2022/03/05 03:33:39;;;;;;;14.90;10.63;;;;;;;1.24;63.39;95495.94;4332317;32;20190;-59
2022/03/05 03:36:05;;;;;;;14.73;11.10;;;;;;;1.46;63.01;95495.31;4352759;32;20181;-59
2022/03/05 03:38:33;;;;;;;17.15;11.40;;;;;;;1.10;63.90;95493.78;4354789;32;20314;-60
2022/03/05 03:41:00;;;;;;;15.13;10.57;;;;;;;1.21;63.91;95496.41;4360316;32;20287;-59
2022/03/05 03:43:26;;;;;;;16.12;10.63;;;;;;;1.07;64.39;95496.84;4361842;32;20290;-59
2022/03/05 03:45:52;;;;;;;15.32;11.15;;;;;;;1.09;64.28;95500.84;4337430;32;20195;-59
2022/03/05 03:48:19;;;;;;;16.27;11.13;;;;;;;1.23;63.93;95498.78;4306825;32;20200;-59
2022/03/05 03:50:45;;;;;;;16.15;11.45;;;;;;;0.92;64.92;95497.34;4308388;32;20193;-59
2022/03/05 03:53:12;;;;;;;14.30;11.07;;;;;;;1.21;64.25;95496.41;4347500;32;20177;-59
2022/03/05 03:55:40;;;;;;;13.25;10.52;;;;;;;1.22;63.76;95498.00;4346228;32;20185;-60
2022/03/05 03:58:08;;;;;;;13.07;9.55;;;;;;;1.33;63.47;95502.38;4359909;32;20181;-60
2022/03/05 04:00:34;;;;;;;15.10;10.93;;;;;;;1.31;63.64;95507.03;4377419;32;20181;-59
2022/03/05 04:03:02;;;;;;;15.07;11.25;;;;;;;1.29;63.27;95516.94;4354869;32;20199;-58
2022/03/05 04:05:33;;;;;;;17.65;11.30;;;;;;;1.35;63.44;95520.44;4352903;32;20215;-59
2022/03/05 04:10:44;;;;;;;13.30;10.98;;;;;;;0.82;65.43;95525.84;4343250;32;20235;-60
2022/03/05 04:13:12;;;;;;;13.13;10.07;;;;;;;0.84;65.50;95523.78;4367161;32;20210;-60
2022/03/05 04:15:38;;;;;;;15.38;11.10;;;;;;;0.93;65.13;95519.81;4327172;32;20260;-60
2022/03/05 04:18:07;;;;;;;15.30;10.25;;;;;;;1.06;64.81;95511.75;4349121;32;20294;-59
2022/03/05 04:20:33;;;;;;;14.48;10.60;;;;;;;1.00;64.82;95510.06;4348811;32;20185;-59
2022/03/05 04:23:00;;;;;;;14.40;10.27;;;;;;;1.23;64.25;95517.88;4346707;32;20287;-60
2022/03/05 04:25:27;;;;;;;14.50;11.27;;;;;;;1.09;64.82;95520.94;4352960;32;20280;-59
2022/03/05 04:27:53;;;;;;;17.20;11.12;;;;;;;1.10;64.65;95525.94;4371501;32;20193;-59
2022/03/05 04:30:20;;;;;;;14.82;10.60;;;;;;;0.96;64.99;95533.22;4337076;32;20215;-59
2022/03/05 04:32:46;;;;;;;16.50;11.55;;;;;;;0.78;65.99;95527.31;4363204;32;20234;-59
2022/03/05 04:35:13;;;;;;;16.60;11.20;;;;;;;0.96;65.55;95532.41;4379313;32;20189;-60
2022/03/05 04:37:40;;;;;;;18.45;12.57;;;;;;;0.76;65.76;95534.59;4320300;32;20264;-59
2022/03/05 04:40:07;;;;;;;17.17;11.35;;;;;;;0.62;66.62;95534.00;4359418;32;20196;-60
2022/03/05 04:42:35;;;;;;;16.00;11.50;;;;;;;0.20;68.09;95544.47;4395968;32;20188;-60
2022/03/05 04:45:08;;;;;;;16.67;11.23;;;;;;;0.59;67.13;95532.63;4347654;32;20193;-59
2022/03/05 04:47:37;;;;;;;18.25;11.70;;;;;;;0.71;66.79;95539.69;4367165;32;20192;-59
2022/03/05 04:50:05;;;;;;;16.80;11.38;;;;;;;0.45;67.52;95538.28;4378780;32;20185;-59
2022/03/05 04:52:34;;;;;;;16.42;11.52;;;;;;;0.55;67.50;95530.69;4377336;32;20180;-59
2022/03/05 04:55:00;;;;;;;15.80;11.18;;;;;;;0.47;67.74;95539.63;4351876;32;20203;-59
2022/03/05 04:57:27;;;;;;;15.93;11.73;;;;;;;0.17;69.02;95547.53;4371495;32;20248;-59
2022/03/05 04:59:53;;;;;;;13.38;11.02;;;;;;;0.32;68.51;95542.69;4334432;32;20190;-59
2022/03/05 05:02:18;;;;;;;15.07;10.80;;;;;;;0.23;68.70;95540.59;4328103;32;20207;-59
2022/03/05 05:04:46;;;;;;;15.17;11.87;;;;;;;0.57;68.25;95532.06;4333817;32;20193;-59
2022/03/05 05:07:17;;;;;;;14.87;11.10;;;;;;;0.71;67.38;95534.47;4359940;32;20181;-60
2022/03/05 05:09:43;;;;;;;21.37;12.00;;;;;;;0.92;66.41;95534.69;4368961;32;20226;-60
2022/03/05 05:12:10;;;;;;;14.73;11.38;;;;;;;0.30;68.16;95546.53;4352732;32;20230;-60
2022/03/05 05:14:37;;;;;;;16.52;11.43;;;;;;;0.32;68.89;95545.28;4347033;32;20203;-60
2022/03/05 05:17:02;;;;;;;17.05;11.48;;;;;;;0.31;68.94;95548.13;4333178;32;20185;-59
2022/03/05 05:19:30;;;;;;;17.10;11.90;;;;;;;0.55;68.37;95534.09;4346854;32;20239;-60
2022/03/05 05:22:01;;;;;;;16.15;11.77;;;;;;;0.76;67.45;95540.59;4305467;32;20289;-60
2022/03/05 05:24:30;;;;;;;17.00;10.90;;;;;;;0.65;67.51;95534.34;4319232;32;20186;-60
2022/03/05 05:26:59;;;;;;;15.38;11.45;;;;;;;0.67;68.02;95539.31;4329080;32;20212;-60
2022/03/05 05:29:24;;;;;;;19.40;12.15;;;;;;;0.75;67.70;95541.63;4358345;32;20193;-60
2022/03/05 05:31:51;;;;;;;15.43;11.47;;;;;;;0.81;67.34;95543.31;4361557;32;20234;-60
2022/03/05 05:34:17;;;;;;;17.62;12.77;;;;;;;0.68;67.61;95539.09;4349146;32;20216;-59
2022/03/05 05:36:45;;;;;;;15.88;11.60;;;;;;;0.54;68.69;95548.16;4333009;32;20195;-59
2022/03/05 05:39:12;;;;;;;18.30;12.48;;;;;;;0.75;67.86;95546.03;4327448;32;20185;-60
2022/03/05 05:41:39;;;;;;;18.98;11.82;;;;;;;0.65;68.42;95547.38;4343803;32;20197;-59
2022/03/05 05:44:09;;;;;;;19.45;12.13;;;;;;;0.76;68.03;95539.81;4351693;32;20234;-60
2022/03/05 05:46:38;;;;;;;14.73;11.73;;;;;;;0.79;68.00;95544.56;4323537;32;20201;-59
2022/03/05 05:49:07;;;;;;;18.25;12.20;;;;;;;0.70;68.09;95546.72;4317907;32;20265;-59
2022/03/05 05:51:34;;;;;;;14.93;11.73;;;;;;;0.76;67.77;95547.63;4259356;33;20194;-60
2022/03/05 05:54:02;;;;;;;21.48;13.13;;;;;;;0.62;68.46;95547.06;4338550;32;20236;-60
2022/03/05 05:56:27;;;;;;;16.48;12.57;;;;;;;0.74;68.10;95547.06;4336445;32;20938;-59
2022/03/05 05:58:56;;;;;;;17.93;12.63;;;;;;;0.85;68.10;95551.47;4339547;32;20228;-61
2022/03/05 06:01:23;;;;;;;19.70;12.82;;;;;;;0.89;67.98;95553.41;4345099;32;20185;-60
2022/03/05 06:03:50;;;;;;;17.35;11.65;;;;;;;0.63;68.83;95557.25;4367681;32;20215;-60
2022/03/05 06:06:17;;;;;;;17.80;12.70;;;;;;;0.53;69.64;95559.63;4366160;32;20199;-60
2022/03/05 06:08:43;;;;;;;18.10;12.30;;;;;;;0.48;69.92;95559.50;4344530;32;20200;-60
2022/03/05 06:11:10;;;;;;;15.57;12.10;;;;;;;0.55;69.69;95554.97;4348792;32;20219;-61
2022/03/05 06:13:38;;;;;;;18.40;12.43;;;;;;;0.65;69.10;95557.81;4357692;32;20188;-61
2022/03/05 06:16:08;;;;;;;18.02;12.85;;;;;;;0.85;68.58;95556.69;4374034;32;20207;-60
2022/03/05 06:18:37;;;;;;;19.10;12.60;;;;;;;0.69;69.01;95566.00;4343541;32;20182;-60
2022/03/05 06:21:08;;;;;;;18.70;12.15;;;;;;;0.49;69.67;95571.53;4345809;32;20208;-60
2022/03/05 06:23:37;;;;;;;18.55;12.98;;;;;;;0.57;69.90;95567.81;4308126;32;20196;-60
2022/03/05 06:26:07;;;;;;;16.27;12.60;;;;;;;0.44;70.50;95574.00;4291933;33;20190;-60
2022/03/05 06:28:43;;;;;;;17.05;12.77;;;;;;;0.37;70.90;95572.53;4337152;32;20181;-60
2022/03/05 06:31:09;;;;;;;19.55;12.85;;;;;;;0.49;70.73;95581.97;4352511;32;20188;-60
2022/03/05 06:33:39;;;;;;;17.00;12.90;;;;;;;0.50;70.34;95578.34;4342886;32;20201;-60
2022/03/05 06:36:04;;;;;;;22.92;14.05;;;;;;;0.50;70.85;95583.56;4334326;32;20193;-61
2022/03/05 06:38:30;;;;;;;14.37;11.67;;;;;;;0.54;70.57;95584.72;4333048;32;20203;-61
2022/03/05 06:40:57;;;;;;;18.73;13.33;;;;;;;0.43;71.44;95582.84;4339202;32;20275;-60
2022/03/05 06:43:24;;;;;;;17.27;13.25;;;;;;;0.31;71.88;95582.84;4335305;32;20199;-60
2022/03/05 06:45:51;;;;;;;18.52;13.18;;;;;;;0.43;71.45;95593.28;4355296;32;20204;-60
2022/03/05 06:48:17;;;;;;;18.33;13.25;;;;;;;0.25;72.05;95588.13;4340969;32;20244;-60
2022/03/05 06:50:44;;;;;;;19.65;13.77;;;;;;;0.41;72.15;95594.56;4332359;32;20177;-60
2022/03/05 06:53:11;;;;;;;18.30;12.88;;;;;;;0.51;71.61;95592.19;4350421;32;20255;-60
2022/03/05 06:55:37;;;;;;;19.65;14.25;;;;;;;0.28;72.26;95592.91;4362719;32;20192;-60
2022/03/05 06:58:03;;;;;;;20.45;13.45;;;;;;;0.24;72.67;95594.38;4363473;32;20201;-60
2022/03/05 07:00:38;;;;;;;21.77;13.25;;;;;;;0.30;72.43;95604.72;4361488;32;20260;-60
2022/03/05 07:03:05;;;;;;;20.60;13.80;;;;;;;0.05;73.46;95603.25;4312294;32;20189;-60
2022/03/05 07:05:34;;;;;;;19.50;13.65;;;;;;;0.05;73.86;95605.84;4351857;32;20256;-60
2022/03/05 07:08:04;;;;;;;19.27;13.00;;;;;;;0.37;72.80;95601.22;4351666;32;20185;-60
2022/03/05 07:10:31;;;;;;;19.80;14.20;;;;;;;0.21;72.87;95606.03;4355045;32;20210;-60
2022/03/05 07:12:57;;;;;;;19.85;13.13;;;;;;;0.00;73.86;95601.31;4363291;32;20315;-60
2022/03/05 07:15:23;;;;;;;24.20;13.93;;;;;;;0.07;74.36;95601.22;4347608;32;20200;-59
2022/03/05 07:17:50;;;;;;;24.20;13.85;;;;;;;0.35;73.06;95609.28;4370243;32;20203;-59
2022/03/05 07:20:15;;;;;;;19.05;13.85;;;;;;;0.32;73.09;95607.09;4343536;32;20181;-59
2022/03/05 07:22:46;;;;;;;19.30;13.33;;;;;;;0.26;73.08;95607.97;4354590;32;20195;-59
2022/03/05 07:25:14;;;;;;;24.15;15.45;;;;;;;0.13;73.36;95608.97;4322826;32;20192;-59
2022/03/05 07:27:42;;;;;;;19.05;13.55;;;;;;;0.26;73.59;95607.97;4353209;32;20239;-58
2022/03/05 07:30:10;;;;;;;19.92;13.82;;;;;;;0.04;74.35;95609.47;4321814;32;20213;-58
2022/03/05 07:32:36;;;;;;;19.85;14.23;;;;;;;0.25;73.97;95611.59;4351522;32;20215;-59
2022/03/05 07:35:04;;;;;;;21.50;15.07;;;;;;;0.21;73.85;95613.84;4348962;32;20185;-61
2022/03/05 07:37:31;;;;;;;22.15;13.68;;;;;;;0.09;74.47;95609.63;4320216;32;20194;-60
2022/03/05 07:39:58;;;;;;;21.90;14.32;;;;;;;0.44;73.59;95610.53;4353254;32;20272;-60
2022/03/05 07:42:24;;;;;;;20.75;14.00;;;;;;;0.48;73.15;95603.84;4375958;32;20189;-59
2022/03/05 07:44:51;;;;;;;22.87;14.38;;;;;;;0.42;73.49;95596.91;4358772;32;20258;-60
2022/03/05 07:47:19;;;;;;;29.90;14.13;;;;;;;0.50;73.44;95601.81;4299959;32;20233;-60
2022/03/05 07:49:44;;;;;;;24.02;13.73;;;;;;;0.59;73.15;95604.91;4328751;32;20193;-60
2022/03/05 07:52:09;;;;;;;20.33;14.40;;;;;;;0.64;73.15;95602.41;4350593;32;20192;-60
2022/03/05 07:54:35;;;;;;;24.53;15.13;;;;;;;0.72;73.20;95609.13;4351632;32;20181;-59
2022/03/05 07:57:01;;;;;;;23.07;15.30;;;;;;;0.75;72.79;95600.88;4355112;32;20177;-60
2022/03/05 07:59:28;;;;;;;22.33;14.55;;;;;;;0.65;73.02;95602.19;4343383;32;20220;-60
2022/03/05 08:01:56;;;;;;;23.17;14.77;;;;;;;0.96;72.07;95592.50;4337053;32;20276;-60
2022/03/05 08:04:26;;;;;;;27.48;15.43;;;;;;;1.12;71.75;95596.22;4351283;32;20181;-60
2022/03/05 08:06:51;;;;;;;42.10;27.13;;;;;;;1.24;71.39;95595.22;4345180;32;20196;-60
2022/03/05 08:09:21;;;;;;;20.75;14.57;;;;;;;1.26;71.29;95594.97;4332348;32;20189;-60
2022/03/05 08:11:51;;;;;;;22.70;15.85;;;;;;;1.25;71.42;95596.78;4347352;32;20227;-60
2022/03/05 08:14:17;;;;;;;21.05;14.87;;;;;;;1.45;70.87;95600.91;4354243;32;20296;-59
2022/03/05 08:16:44;;;;;;;20.35;14.60;;;;;;;1.48;70.46;95608.25;4347340;32;20208;-60
2022/03/05 08:19:10;;;;;;;22.98;15.35;;;;;;;1.29;71.18;95602.34;4356767;32;20182;-53
2022/03/05 08:21:39;;;;;;;21.42;13.02;;;;;;;1.36;72.46;95611.69;4338634;32;20189;-56
2022/03/05 08:24:06;;;;;;;21.70;12.77;;;;;;;2.62;86.14;95604.72;4369253;32;20234;-56
2022/03/05 08:26:33;;;;;;;28.10;13.02;;;;;;;3.56;83.30;95602.22;4374215;32;20267;-56
2022/03/05 08:28:59;;;;;;;21.00;13.62;;;;;;;4.27;83.55;95597.84;4354781;32;20172;-55
2022/03/05 08:31:24;;;;;;;23.92;13.77;;;;;;;4.64;78.75;95597.94;4290832;32;20229;-56
2022/03/05 08:33:50;;;;;;;18.97;13.60;;;;;;;4.97;79.41;95590.88;4334037;32;20227;-56
2022/03/05 08:36:22;;;;;;;19.40;14.90;;;;;;;4.87;73.47;95598.66;4350272;32;20196;-56
2022/03/05 08:38:50;;;;;;;20.73;15.37;;;;;;;5.02;70.17;95596.94;4300833;32;20199;-55
2022/03/05 08:41:17;;;;;;;19.10;14.07;;;;;;;5.24;71.25;95594.22;4323779;32;20357;-56
2022/03/05 08:43:43;;;;;;;16.23;12.83;;;;;;;5.27;70.96;95591.09;4354354;32;20287;-56
2022/03/05 08:46:10;;;;;;;20.33;13.70;;;;;;;5.14;71.46;95587.06;4349686;32;20277;-56
2022/03/05 08:48:36;;;;;;;20.97;12.70;;;;;;;5.41;71.08;95589.59;4369786;32;20284;-59
2022/03/05 08:51:09;;;;;;;22.30;14.87;;;;;;;5.77;71.93;95584.53;4343207;32;20308;-57
2022/03/05 08:53:36;;;;;;;19.73;13.80;;;;;;;5.74;63.55;95574.53;4343134;32;20336;-55
2022/03/05 08:56:01;;;;;;;19.37;15.27;;;;;;;6.09;66.17;95577.31;4366138;32;20273;-57
2022/03/05 08:58:26;;;;;;;16.17;14.03;;;;;;;5.80;64.98;95584.03;4370228;32;20336;-57
2022/03/05 09:00:53;;;;;;;17.60;14.17;;;;;;;5.13;60.99;95596.00;4339828;32;20193;-57
2022/03/05 09:03:19;;;;;;;19.33;13.07;;;;;;;5.18;65.06;95588.16;4324282;32;20190;-57
2022/03/05 09:05:46;;;;;;;17.90;14.00;;;;;;;5.66;70.35;95588.16;4313193;33;20274;-55
2022/03/05 09:08:22;;;;;;;16.53;13.17;;;;;;;5.58;67.49;95586.81;4346362;32;20184;-57
2022/03/05 09:10:49;;;;;;;15.43;13.00;;;;;;;5.94;69.27;95584.38;4352051;32;20329;-57
2022/03/05 09:13:15;;;;;;;17.30;13.90;;;;;;;5.73;62.42;95583.47;4345443;32;20273;-55
2022/03/05 09:15:40;;;;;;;17.60;13.37;;;;;;;5.42;62.06;95588.53;4346180;32;20319;-57
2022/03/05 09:18:09;;;;;;;17.10;12.87;;;;;;;5.45;61.46;95585.41;4350295;32;20282;-59
2022/03/05 09:20:35;;;;;;;23.10;13.10;;;;;;;5.46;63.50;95594.87;4327766;32;20182;-56
2022/03/05 09:23:01;;;;;;;16.83;13.97;;;;;;;5.27;60.94;95588.44;4332903;32;20270;-55
2022/03/05 09:25:27;;;;;;;17.07;12.93;;;;;;;5.47;66.07;95583.31;4324508;32;20341;-60
2022/03/05 09:27:53;;;;;;;15.70;13.87;;;;;;;4.89;56.83;95583.44;4331758;32;20299;-60
2022/03/05 09:30:20;;;;;;;14.53;13.03;;;;;;;4.65;57.13;95589.00;4343187;32;20244;-60
2022/03/05 09:32:47;;;;;;;16.07;12.80;;;;;;;4.47;57.24;95582.28;4327990;32;20193;-60
2022/03/05 09:35:13;;;;;;;16.90;12.63;;;;;;;4.13;57.80;95579.06;4317604;32;20328;-61
2022/03/05 09:37:40;;;;;;;14.87;12.00;;;;;;;4.08;57.08;95581.63;4333839;32;20285;-61
2022/03/05 09:40:08;;;;;;;15.67;12.30;;;;;;;3.98;56.94;95573.63;4314792;32;20317;-62
2022/03/05 09:42:56;;;;;;;14.30;11.70;;;;;;;3.81;57.27;95583.38;4299661;33;20290;-60
2022/03/05 09:45:24;;;;;;;14.53;11.63;;;;;;;3.55;56.01;95582.25;4306750;32;20301;-60
2022/03/05 09:47:52;;;;;;;14.10;10.43;;;;;;;3.60;56.55;95571.06;4323921;32;20285;-60
2022/03/05 09:50:18;;;;;;;13.20;10.20;;;;;;;3.64;55.67;95583.44;4361173;32;20268;-60
2022/03/05 09:52:54;;;;;;;13.30;10.37;;;;;;;3.64;55.08;95578.19;4341184;32;20253;-61
2022/03/05 09:55:20;;;;;;;12.93;9.82;;;;;;;3.62;55.15;95579.47;4345445;32;20284;-60
2022/03/05 09:57:47;;;;;;;11.98;10.40;;;;;;;3.56;54.00;95575.19;4350162;32;20189;-60
2022/03/05 10:00:13;;;;;;;10.82;9.25;;;;;;;3.65;54.16;95587.66;4324986;32;20185;-61
2022/03/05 10:02:47;;;;;;;10.88;8.90;;;;;;;3.72;53.30;95579.63;4353047;32;20185;-59
2022/03/05 10:05:36;;;;;;;11.30;8.50;;;;;;;3.79;52.33;95574.97;4355900;32;20229;-60
2022/03/05 10:08:08;;;;;;;8.85;7.93;;;;;;;3.96;51.73;95580.94;4370646;32;20318;-60
2022/03/05 10:10:52;;;;;;;10.30;8.77;;;;;;;3.59;50.11;95578.13;4362743;32;20188;-60
2022/03/05 10:13:20;;;;;;;9.20;7.70;;;;;;;3.75;49.94;95581.72;4345536;32;20350;-60
2022/03/05 10:15:48;;;;;;;8.27;7.07;;;;;;;3.73;48.45;95579.38;4361476;32;20184;-60
2022/03/05 10:18:14;;;;;;;13.77;9.60;;;;;;;3.88;47.75;95572.72;4353890;32;20169;-60
2022/03/05 10:20:58;;;;;;;16.73;9.10;;;;;;;3.89;47.70;95569.06;4353746;32;20314;-60
2022/03/05 10:23:32;;;;;;;16.03;10.13;;;;;;;4.14;48.68;95575.41;4341951;32;20204;-59
2022/03/05 10:26:09;;;;;;;11.27;9.13;;;;;;;4.42;49.51;95578.81;4346397;32;20277;-60
2022/03/05 10:28:41;;;;;;;13.20;10.57;;;;;;;4.33;49.75;95564.56;4353338;32;20304;-60
2022/03/05 10:31:09;;;;;;;12.37;10.27;;;;;;;4.62;49.01;95573.75;4348401;32;20281;-61
2022/03/05 10:33:46;;;;;;;13.10;9.80;;;;;;;4.83;48.11;95580.75;4366401;32;20376;-60
2022/03/05 10:36:25;;;;;;;9.60;8.20;;;;;;;4.76;47.46;95576.78;4330521;32;20343;-60
2022/03/05 10:38:51;;;;;;;12.93;9.70;;;;;;;4.64;47.46;95582.16;4343474;32;20269;-60
2022/03/05 10:41:23;;;;;;;10.80;8.60;;;;;;;4.48;47.60;95573.37;4347432;32;20307;-59
2022/03/05 10:44:22;;;;;;;10.73;8.47;;;;;;;4.34;47.61;95576.66;4362881;32;20285;-60
2022/03/05 10:47:03;;;;;;;10.40;8.13;;;;;;;4.22;47.59;95562.84;4364282;32;20381;-60
2022/03/05 10:49:42;;;;;;;7.87;6.43;;;;;;;4.33;47.05;95567.97;4314663;33;20332;-60
2022/03/05 10:52:11;;;;;;;6.93;6.30;;;;;;;4.37;45.03;95574.28;4349229;32;20295;-60
2022/03/05 10:54:42;;;;;;;8.43;7.07;;;;;;;4.28;44.76;95573.16;4349971;32;20281;-60
2022/03/05 10:57:23;;;;;;;8.83;7.17;;;;;;;4.25;45.86;95572.87;4340359;32;20203;-61
2022/03/05 11:00:06;;;;;;;8.43;6.75;;;;;;;4.17;46.24;95568.03;4352003;32;20280;-60
2022/03/05 11:02:33;;;;;;;7.90;7.10;;;;;;;4.41;45.90;95564.87;4362247;32;20188;-61
2022/03/05 11:05:04;;;;;;;9.23;7.67;;;;;;;4.61;46.01;95577.41;4369456;32;20291;-62
2022/03/05 11:07:31;;;;;;;7.70;6.90;;;;;;;4.54;45.31;95571.59;4335388;32;20301;-61
2022/03/05 11:09:59;;;;;;;8.20;6.87;;;;;;;4.48;44.74;95575.19;4349929;32;20386;-62
2022/03/05 11:12:29;;;;;;;8.90;7.27;;;;;;;4.45;44.98;95567.81;4363348;32;20270;-62
2022/03/05 11:14:57;;;;;;;8.67;6.77;;;;;;;4.39;44.40;95569.59;4364774;32;20310;-61
2022/03/05 11:17:24;;;;;;;8.00;7.13;;;;;;;4.42;44.38;95568.31;4364274;32;20289;-60
2022/03/05 11:19:51;;;;;;;7.63;6.67;;;;;;;4.51;44.24;95566.81;4352400;32;20301;-62
2022/03/05 11:22:17;;;;;;;7.63;6.70;;;;;;;4.57;43.98;95565.84;4343285;32;20288;-61
2022/03/05 11:24:43;;;;;;;7.57;6.27;;;;;;;4.51;44.00;95572.06;4333159;32;20286;-60
2022/03/05 11:27:16;;;;;;;7.77;6.50;;;;;;;4.26;44.45;95561.31;4334419;32;20293;-61
2022/03/05 11:29:57;;;;;;;7.40;6.63;;;;;;;4.37;44.53;95545.41;4327047;32;20282;-62
2022/03/05 11:32:45;;;;;;;7.10;5.77;;;;;;;4.60;44.51;95560.06;4322095;32;20337;-61